sensor_id;sensor_type;location;lat;lon;timestamp;temperature;humidity
67529;DHT22;54366;51.980;5.856;2024-02-21T00:01:17;10.40;86.00
67529;DHT22;54366;51.980;5.856;2024-02-21T00:03:44;10.40;86.10
67529;DHT22;54366;51.980;5.856;2024-02-21T00:06:10;10.40;86.00
67529;DHT22;54366;51.980;5.856;2024-02-21T00:08:36;10.40;86.00
67529;DHT22;54366;51.980;5.856;2024-02-21T00:11:03;10.40;86.00
67529;DHT22;54366;51.980;5.856;2024-02-21T00:13:29;10.40;86.00
67529;DHT22;54366;51.980;5.856;2024-02-21T00:15:56;10.40;86.00
67529;DHT22;54366;51.980;5.856;2024-02-21T00:18:22;10.40;86.00
67529;DHT22;54366;51.980;5.856;2024-02-21T00:20:48;10.40;86.00
67529;DHT22;54366;51.980;5.856;2024-02-21T00:23:15;10.40;86.00
67529;DHT22;54366;51.980;5.856;2024-02-21T00:25:41;10.40;86.00
67529;DHT22;54366;51.980;5.856;2024-02-21T00:28:07;10.40;86.00
67529;DHT22;54366;51.980;5.856;2024-02-21T00:30:33;10.30;85.90
67529;DHT22;54366;51.980;5.856;2024-02-21T00:33:00;10.40;86.10
67529;DHT22;54366;51.980;5.856;2024-02-21T00:35:26;10.40;86.10
67529;DHT22;54366;51.980;5.856;2024-02-21T00:37:52;10.30;86.10
67529;DHT22;54366;51.980;5.856;2024-02-21T00:40:19;10.40;86.20
67529;DHT22;54366;51.980;5.856;2024-02-21T00:42:47;10.40;86.20
67529;DHT22;54366;51.980;5.856;2024-02-21T00:45:13;10.40;86.20
67529;DHT22;54366;51.980;5.856;2024-02-21T00:47:39;10.30;86.10
67529;DHT22;54366;51.980;5.856;2024-02-21T00:50:06;10.40;86.10
67529;DHT22;54366;51.980;5.856;2024-02-21T00:52:33;10.40;86.10
67529;DHT22;54366;51.980;5.856;2024-02-21T00:54:59;10.30;86.00
67529;DHT22;54366;51.980;5.856;2024-02-21T00:57:26;10.30;86.00
67529;DHT22;54366;51.980;5.856;2024-02-21T00:59:52;10.30;86.10
67529;DHT22;54366;51.980;5.856;2024-02-21T01:02:18;10.30;86.10
67529;DHT22;54366;51.980;5.856;2024-02-21T01:04:45;10.30;86.20
67529;DHT22;54366;51.980;5.856;2024-02-21T01:07:11;10.30;86.10
67529;DHT22;54366;51.980;5.856;2024-02-21T01:09:37;10.40;86.10
67529;DHT22;54366;51.980;5.856;2024-02-21T01:12:04;10.30;86.10
67529;DHT22;54366;51.980;5.856;2024-02-21T01:14:30;10.40;86.20
67529;DHT22;54366;51.980;5.856;2024-02-21T01:16:57;10.30;86.10
67529;DHT22;54366;51.980;5.856;2024-02-21T01:19:23;10.30;86.10
67529;DHT22;54366;51.980;5.856;2024-02-21T01:21:49;10.30;86.10
67529;DHT22;54366;51.980;5.856;2024-02-21T01:24:16;10.30;86.20
67529;DHT22;54366;51.980;5.856;2024-02-21T01:26:42;10.30;86.20
67529;DHT22;54366;51.980;5.856;2024-02-21T01:29:08;10.30;86.10
67529;DHT22;54366;51.980;5.856;2024-02-21T01:31:35;10.30;86.60
67529;DHT22;54366;51.980;5.856;2024-02-21T01:34:01;10.30;86.20
67529;DHT22;54366;51.980;5.856;2024-02-21T01:36:27;10.30;86.20
67529;DHT22;54366;51.980;5.856;2024-02-21T01:38:54;10.30;86.30
67529;DHT22;54366;51.980;5.856;2024-02-21T01:41:20;10.30;86.20
67529;DHT22;54366;51.980;5.856;2024-02-21T01:43:46;10.30;86.20
67529;DHT22;54366;51.980;5.856;2024-02-21T01:46:12;10.40;86.20
67529;DHT22;54366;51.980;5.856;2024-02-21T01:48:39;10.30;86.20
67529;DHT22;54366;51.980;5.856;2024-02-21T01:51:05;10.30;86.30
67529;DHT22;54366;51.980;5.856;2024-02-21T01:53:38;10.30;86.30
67529;DHT22;54366;51.980;5.856;2024-02-21T01:56:07;10.30;86.20
67529;DHT22;54366;51.980;5.856;2024-02-21T01:58:36;10.30;86.20
67529;DHT22;54366;51.980;5.856;2024-02-21T02:01:03;10.30;86.30
67529;DHT22;54366;51.980;5.856;2024-02-21T02:03:30;10.30;86.30
67529;DHT22;54366;51.980;5.856;2024-02-21T02:05:57;10.30;86.30
67529;DHT22;54366;51.980;5.856;2024-02-21T02:08:23;10.40;86.30
67529;DHT22;54366;51.980;5.856;2024-02-21T02:10:50;10.40;86.30
67529;DHT22;54366;51.980;5.856;2024-02-21T02:13:16;10.30;86.30
67529;DHT22;54366;51.980;5.856;2024-02-21T02:15:44;10.30;86.20
67529;DHT22;54366;51.980;5.856;2024-02-21T02:18:11;10.30;86.30
67529;DHT22;54366;51.980;5.856;2024-02-21T02:20:38;10.30;86.20
67529;DHT22;54366;51.980;5.856;2024-02-21T02:23:10;10.30;86.20
67529;DHT22;54366;51.980;5.856;2024-02-21T02:25:37;10.30;86.20
67529;DHT22;54366;51.980;5.856;2024-02-21T02:28:07;10.30;86.20
67529;DHT22;54366;51.980;5.856;2024-02-21T02:30:34;10.30;86.30
67529;DHT22;54366;51.980;5.856;2024-02-21T02:33:03;10.30;86.20
67529;DHT22;54366;51.980;5.856;2024-02-21T02:35:29;10.30;86.20
67529;DHT22;54366;51.980;5.856;2024-02-21T02:37:56;10.30;86.20
67529;DHT22;54366;51.980;5.856;2024-02-21T02:40:22;10.30;86.20
67529;DHT22;54366;51.980;5.856;2024-02-21T02:42:49;10.30;86.70
67529;DHT22;54366;51.980;5.856;2024-02-21T02:45:16;10.30;86.10
67529;DHT22;54366;51.980;5.856;2024-02-21T02:47:44;10.30;86.20
67529;DHT22;54366;51.980;5.856;2024-02-21T02:50:12;10.30;86.30
67529;DHT22;54366;51.980;5.856;2024-02-21T02:52:38;10.30;86.20
67529;DHT22;54366;51.980;5.856;2024-02-21T02:55:05;10.30;86.10
67529;DHT22;54366;51.980;5.856;2024-02-21T02:57:32;10.30;86.20
67529;DHT22;54366;51.980;5.856;2024-02-21T02:59:58;10.30;86.20
67529;DHT22;54366;51.980;5.856;2024-02-21T03:02:25;10.30;86.30
67529;DHT22;54366;51.980;5.856;2024-02-21T03:04:51;10.30;86.30
67529;DHT22;54366;51.980;5.856;2024-02-21T03:07:17;10.30;86.30
67529;DHT22;54366;51.980;5.856;2024-02-21T03:09:44;10.20;86.20
67529;DHT22;54366;51.980;5.856;2024-02-21T03:12:10;10.20;86.20
67529;DHT22;54366;51.980;5.856;2024-02-21T03:14:37;10.30;86.30
67529;DHT22;54366;51.980;5.856;2024-02-21T03:17:04;10.30;86.20
67529;DHT22;54366;51.980;5.856;2024-02-21T03:19:31;10.20;86.20
67529;DHT22;54366;51.980;5.856;2024-02-21T03:21:57;10.20;86.20
67529;DHT22;54366;51.980;5.856;2024-02-21T03:24:24;10.20;86.20
67529;DHT22;54366;51.980;5.856;2024-02-21T03:26:50;10.20;86.20
67529;DHT22;54366;51.980;5.856;2024-02-21T03:29:16;10.30;86.20
67529;DHT22;54366;51.980;5.856;2024-02-21T03:31:43;10.20;86.20
67529;DHT22;54366;51.980;5.856;2024-02-21T03:34:12;10.30;86.20
67529;DHT22;54366;51.980;5.856;2024-02-21T03:36:39;10.30;86.20
67529;DHT22;54366;51.980;5.856;2024-02-21T03:39:05;10.20;86.10
67529;DHT22;54366;51.980;5.856;2024-02-21T03:41:31;10.20;86.10
67529;DHT22;54366;51.980;5.856;2024-02-21T03:43:58;10.30;86.20
67529;DHT22;54366;51.980;5.856;2024-02-21T03:46:24;10.30;86.20
67529;DHT22;54366;51.980;5.856;2024-02-21T03:48:51;10.30;86.20
67529;DHT22;54366;51.980;5.856;2024-02-21T03:51:17;10.20;86.20
67529;DHT22;54366;51.980;5.856;2024-02-21T03:53:44;10.20;86.10
67529;DHT22;54366;51.980;5.856;2024-02-21T03:56:10;10.20;86.10
67529;DHT22;54366;51.980;5.856;2024-02-21T03:58:36;10.30;86.20
67529;DHT22;54366;51.980;5.856;2024-02-21T04:01:03;10.30;86.20
67529;DHT22;54366;51.980;5.856;2024-02-21T04:03:30;10.30;86.20
67529;DHT22;54366;51.980;5.856;2024-02-21T04:05:57;10.30;86.70
67529;DHT22;54366;51.980;5.856;2024-02-21T04:08:23;10.30;86.10
67529;DHT22;54366;51.980;5.856;2024-02-21T04:10:49;10.30;86.10
67529;DHT22;54366;51.980;5.856;2024-02-21T04:13:16;10.30;86.10
67529;DHT22;54366;51.980;5.856;2024-02-21T04:15:42;10.30;86.10
67529;DHT22;54366;51.980;5.856;2024-02-21T04:18:08;10.30;86.10
67529;DHT22;54366;51.980;5.856;2024-02-21T04:20:35;10.30;86.10
67529;DHT22;54366;51.980;5.856;2024-02-21T04:23:01;10.30;86.00
67529;DHT22;54366;51.980;5.856;2024-02-21T04:25:27;10.20;86.00
67529;DHT22;54366;51.980;5.856;2024-02-21T04:27:54;10.30;86.10
67529;DHT22;54366;51.980;5.856;2024-02-21T04:30:20;10.20;86.00
67529;DHT22;54366;51.980;5.856;2024-02-21T04:32:46;10.20;86.00
67529;DHT22;54366;51.980;5.856;2024-02-21T04:35:13;10.20;86.10
67529;DHT22;54366;51.980;5.856;2024-02-21T04:37:39;10.20;86.00
67529;DHT22;54366;51.980;5.856;2024-02-21T04:40:06;10.30;86.10
67529;DHT22;54366;51.980;5.856;2024-02-21T04:42:33;10.30;86.00
67529;DHT22;54366;51.980;5.856;2024-02-21T04:44:59;10.20;86.00
67529;DHT22;54366;51.980;5.856;2024-02-21T04:47:26;10.20;86.00
67529;DHT22;54366;51.980;5.856;2024-02-21T04:49:53;10.20;86.00
67529;DHT22;54366;51.980;5.856;2024-02-21T04:52:19;10.20;86.00
67529;DHT22;54366;51.980;5.856;2024-02-21T04:54:45;10.20;85.90
67529;DHT22;54366;51.980;5.856;2024-02-21T04:57:12;10.20;85.90
67529;DHT22;54366;51.980;5.856;2024-02-21T04:59:46;10.20;85.90
67529;DHT22;54366;51.980;5.856;2024-02-21T05:02:14;10.20;85.90
67529;DHT22;54366;51.980;5.856;2024-02-21T05:04:40;10.20;85.90
67529;DHT22;54366;51.980;5.856;2024-02-21T05:07:07;10.20;85.90
67529;DHT22;54366;51.980;5.856;2024-02-21T05:09:34;10.10;85.70
67529;DHT22;54366;51.980;5.856;2024-02-21T05:12:00;10.10;85.70
67529;DHT22;54366;51.980;5.856;2024-02-21T05:14:26;10.10;85.80
67529;DHT22;54366;51.980;5.856;2024-02-21T05:16:53;10.10;85.80
67529;DHT22;54366;51.980;5.856;2024-02-21T05:19:19;10.10;85.80
67529;DHT22;54366;51.980;5.856;2024-02-21T05:21:46;10.10;85.80
67529;DHT22;54366;51.980;5.856;2024-02-21T05:24:12;10.10;85.70
67529;DHT22;54366;51.980;5.856;2024-02-21T05:26:38;10.10;85.70
67529;DHT22;54366;51.980;5.856;2024-02-21T05:29:05;10.10;85.80
67529;DHT22;54366;51.980;5.856;2024-02-21T05:31:55;10.10;85.80
67529;DHT22;54366;51.980;5.856;2024-02-21T05:34:22;10.10;85.70
67529;DHT22;54366;51.980;5.856;2024-02-21T05:36:48;10.10;85.80
67529;DHT22;54366;51.980;5.856;2024-02-21T05:39:17;10.10;85.80
67529;DHT22;54366;51.980;5.856;2024-02-21T05:41:44;10.10;85.80
67529;DHT22;54366;51.980;5.856;2024-02-21T05:44:11;10.10;85.80
67529;DHT22;54366;51.980;5.856;2024-02-21T05:46:37;10.10;85.70
67529;DHT22;54366;51.980;5.856;2024-02-21T05:49:03;10.00;85.80
67529;DHT22;54366;51.980;5.856;2024-02-21T05:51:34;10.10;85.80
67529;DHT22;54366;51.980;5.856;2024-02-21T05:54:00;10.10;85.80
67529;DHT22;54366;51.980;5.856;2024-02-21T05:56:26;10.00;85.80
67529;DHT22;54366;51.980;5.856;2024-02-21T05:58:53;10.00;85.80
67529;DHT22;54366;51.980;5.856;2024-02-21T06:01:19;10.10;85.80
67529;DHT22;54366;51.980;5.856;2024-02-21T06:03:47;10.00;85.80
67529;DHT22;54366;51.980;5.856;2024-02-21T06:06:13;10.00;85.90
67529;DHT22;54366;51.980;5.856;2024-02-21T06:08:40;10.00;85.90
67529;DHT22;54366;51.980;5.856;2024-02-21T06:11:07;10.00;85.90
67529;DHT22;54366;51.980;5.856;2024-02-21T06:13:33;10.00;86.00
67529;DHT22;54366;51.980;5.856;2024-02-21T06:15:59;10.00;85.90
67529;DHT22;54366;51.980;5.856;2024-02-21T06:18:26;10.00;86.00
67529;DHT22;54366;51.980;5.856;2024-02-21T06:20:52;10.00;86.00
67529;DHT22;54366;51.980;5.856;2024-02-21T06:23:19;10.00;86.00
67529;DHT22;54366;51.980;5.856;2024-02-21T06:25:45;10.00;85.90
67529;DHT22;54366;51.980;5.856;2024-02-21T06:28:13;10.00;85.90
67529;DHT22;54366;51.980;5.856;2024-02-21T06:30:40;10.00;85.80
67529;DHT22;54366;51.980;5.856;2024-02-21T06:33:06;10.00;85.90
67529;DHT22;54366;51.980;5.856;2024-02-21T06:35:34;10.00;85.90
67529;DHT22;54366;51.980;5.856;2024-02-21T06:38:00;10.00;85.80
67529;DHT22;54366;51.980;5.856;2024-02-21T06:40:26;10.00;85.70
67529;DHT22;54366;51.980;5.856;2024-02-21T06:42:53;10.00;85.70
67529;DHT22;54366;51.980;5.856;2024-02-21T06:45:19;10.00;85.80
67529;DHT22;54366;51.980;5.856;2024-02-21T06:47:45;10.00;85.80
67529;DHT22;54366;51.980;5.856;2024-02-21T06:50:13;10.00;85.80
67529;DHT22;54366;51.980;5.856;2024-02-21T06:52:39;10.00;85.80
67529;DHT22;54366;51.980;5.856;2024-02-21T06:55:06;10.00;85.70
67529;DHT22;54366;51.980;5.856;2024-02-21T06:57:32;10.00;85.70
67529;DHT22;54366;51.980;5.856;2024-02-21T06:59:58;10.00;85.70
67529;DHT22;54366;51.980;5.856;2024-02-21T07:02:25;10.00;85.70
67529;DHT22;54366;51.980;5.856;2024-02-21T07:04:51;9.90;85.60
67529;DHT22;54366;51.980;5.856;2024-02-21T07:07:17;9.90;85.60
67529;DHT22;54366;51.980;5.856;2024-02-21T07:09:44;10.00;85.70
67529;DHT22;54366;51.980;5.856;2024-02-21T07:12:10;10.00;85.70
67529;DHT22;54366;51.980;5.856;2024-02-21T07:14:36;10.00;85.50
67529;DHT22;54366;51.980;5.856;2024-02-21T07:17:03;10.00;85.60
67529;DHT22;54366;51.980;5.856;2024-02-21T07:19:29;10.00;85.50
67529;DHT22;54366;51.980;5.856;2024-02-21T07:21:56;10.00;85.50
67529;DHT22;54366;51.980;5.856;2024-02-21T07:24:23;10.00;85.50
67529;DHT22;54366;51.980;5.856;2024-02-21T07:26:49;9.90;85.50
67529;DHT22;54366;51.980;5.856;2024-02-21T07:29:15;10.00;85.50
67529;DHT22;54366;51.980;5.856;2024-02-21T07:31:42;10.00;85.40
67529;DHT22;54366;51.980;5.856;2024-02-21T07:34:09;10.00;85.40
67529;DHT22;54366;51.980;5.856;2024-02-21T07:36:36;10.00;85.50
67529;DHT22;54366;51.980;5.856;2024-02-21T07:39:04;10.00;85.40
67529;DHT22;54366;51.980;5.856;2024-02-21T07:41:31;10.00;85.40
67529;DHT22;54366;51.980;5.856;2024-02-21T07:43:57;10.00;85.40
67529;DHT22;54366;51.980;5.856;2024-02-21T07:46:24;10.00;85.80
67529;DHT22;54366;51.980;5.856;2024-02-21T07:48:50;10.10;85.40
67529;DHT22;54366;51.980;5.856;2024-02-21T07:51:17;10.00;85.30
67529;DHT22;54366;51.980;5.856;2024-02-21T07:53:44;10.00;85.30
67529;DHT22;54366;51.980;5.856;2024-02-21T07:56:12;10.00;85.20
67529;DHT22;54366;51.980;5.856;2024-02-21T07:58:38;10.00;85.30
67529;DHT22;54366;51.980;5.856;2024-02-21T08:01:04;10.10;85.30
67529;DHT22;54366;51.980;5.856;2024-02-21T08:03:31;10.10;85.30
67529;DHT22;54366;51.980;5.856;2024-02-21T08:05:57;10.10;85.30
67529;DHT22;54366;51.980;5.856;2024-02-21T08:08:23;10.10;85.10
67529;DHT22;54366;51.980;5.856;2024-02-21T08:10:51;10.10;85.10
67529;DHT22;54366;51.980;5.856;2024-02-21T08:13:17;10.10;85.00
67529;DHT22;54366;51.980;5.856;2024-02-21T08:15:43;10.10;85.10
67529;DHT22;54366;51.980;5.856;2024-02-21T08:18:10;10.10;85.00
67529;DHT22;54366;51.980;5.856;2024-02-21T08:20:36;10.20;85.00
67529;DHT22;54366;51.980;5.856;2024-02-21T08:23:03;10.20;85.00
67529;DHT22;54366;51.980;5.856;2024-02-21T08:25:29;10.20;84.80
67529;DHT22;54366;51.980;5.856;2024-02-21T08:27:58;10.20;84.70
67529;DHT22;54366;51.980;5.856;2024-02-21T08:30:25;10.20;84.70
67529;DHT22;54366;51.980;5.856;2024-02-21T08:32:51;10.20;84.80
67529;DHT22;54366;51.980;5.856;2024-02-21T08:35:17;10.20;84.70
67529;DHT22;54366;51.980;5.856;2024-02-21T08:37:45;10.30;84.80
67529;DHT22;54366;51.980;5.856;2024-02-21T08:40:14;10.30;84.40
67529;DHT22;54366;51.980;5.856;2024-02-21T08:42:44;10.30;84.50
67529;DHT22;54366;51.980;5.856;2024-02-21T08:45:10;10.30;84.40
67529;DHT22;54366;51.980;5.856;2024-02-21T08:47:39;10.30;84.50
67529;DHT22;54366;51.980;5.856;2024-02-21T08:50:06;10.30;84.50
67529;DHT22;54366;51.980;5.856;2024-02-21T08:52:33;10.30;84.60
67529;DHT22;54366;51.980;5.856;2024-02-21T08:54:59;10.30;84.30
67529;DHT22;54366;51.980;5.856;2024-02-21T08:57:25;10.30;84.40
67529;DHT22;54366;51.980;5.856;2024-02-21T08:59:52;10.40;84.50
67529;DHT22;54366;51.980;5.856;2024-02-21T09:02:18;10.40;84.30
67529;DHT22;54366;51.980;5.856;2024-02-21T09:04:44;10.40;84.30
67529;DHT22;54366;51.980;5.856;2024-02-21T09:07:11;10.40;84.00
67529;DHT22;54366;51.980;5.856;2024-02-21T09:09:37;10.40;83.90
67529;DHT22;54366;51.980;5.856;2024-02-21T09:12:07;10.40;84.00
67529;DHT22;54366;51.980;5.856;2024-02-21T09:14:34;10.40;83.90
67529;DHT22;54366;51.980;5.856;2024-02-21T09:17:00;10.40;83.80
67529;DHT22;54366;51.980;5.856;2024-02-21T09:19:26;10.40;83.80
67529;DHT22;54366;51.980;5.856;2024-02-21T09:21:53;10.40;83.60
67529;DHT22;54366;51.980;5.856;2024-02-21T09:24:19;10.40;83.60
67529;DHT22;54366;51.980;5.856;2024-02-21T09:26:45;10.50;83.70
67529;DHT22;54366;51.980;5.856;2024-02-21T09:29:12;10.50;83.90
67529;DHT22;54366;51.980;5.856;2024-02-21T09:31:38;10.50;83.80
67529;DHT22;54366;51.980;5.856;2024-02-21T09:34:04;10.50;83.70
67529;DHT22;54366;51.980;5.856;2024-02-21T09:36:31;10.60;83.80
67529;DHT22;54366;51.980;5.856;2024-02-21T09:38:57;10.60;83.60
67529;DHT22;54366;51.980;5.856;2024-02-21T09:41:27;10.60;83.60
67529;DHT22;54366;51.980;5.856;2024-02-21T09:43:54;10.60;83.40
67529;DHT22;54366;51.980;5.856;2024-02-21T09:46:27;10.60;83.30
67529;DHT22;54366;51.980;5.856;2024-02-21T09:51:42;10.60;83.10
67529;DHT22;54366;51.980;5.856;2024-02-21T09:54:09;10.60;83.10
67529;DHT22;54366;51.980;5.856;2024-02-21T09:56:35;10.60;83.10
67529;DHT22;54366;51.980;5.856;2024-02-21T09:59:03;10.60;83.20
67529;DHT22;54366;51.980;5.856;2024-02-21T10:01:31;10.70;83.30
67529;DHT22;54366;51.980;5.856;2024-02-21T10:03:58;10.70;83.00
67529;DHT22;54366;51.980;5.856;2024-02-21T10:06:24;10.70;82.80
67529;DHT22;54366;51.980;5.856;2024-02-21T10:08:54;10.70;82.60
67529;DHT22;54366;51.980;5.856;2024-02-21T10:11:26;10.70;82.60
67529;DHT22;54366;51.980;5.856;2024-02-21T10:14:06;10.70;82.50
67529;DHT22;54366;51.980;5.856;2024-02-21T10:16:32;10.70;82.50
67529;DHT22;54366;51.980;5.856;2024-02-21T10:19:00;10.80;82.50
67529;DHT22;54366;51.980;5.856;2024-02-21T10:21:26;10.90;82.60
67529;DHT22;54366;51.980;5.856;2024-02-21T10:23:52;10.90;83.10
67529;DHT22;54366;51.980;5.856;2024-02-21T10:26:19;10.90;82.50
67529;DHT22;54366;51.980;5.856;2024-02-21T10:28:47;10.90;82.40
67529;DHT22;54366;51.980;5.856;2024-02-21T10:31:27;10.90;82.40
67529;DHT22;54366;51.980;5.856;2024-02-21T10:33:58;10.90;82.30
67529;DHT22;54366;51.980;5.856;2024-02-21T10:36:25;10.90;82.40
67529;DHT22;54366;51.980;5.856;2024-02-21T10:38:52;10.90;82.50
67529;DHT22;54366;51.980;5.856;2024-02-21T10:41:20;10.80;82.60
67529;DHT22;54366;51.980;5.856;2024-02-21T10:43:50;10.80;83.00
67529;DHT22;54366;51.980;5.856;2024-02-21T10:46:23;10.80;83.20
67529;DHT22;54366;51.980;5.856;2024-02-21T10:49:13;10.80;83.20
67529;DHT22;54366;51.980;5.856;2024-02-21T10:51:43;10.80;83.20
67529;DHT22;54366;51.980;5.856;2024-02-21T10:57:22;10.70;83.60
67529;DHT22;54366;51.980;5.856;2024-02-21T10:59:50;10.80;83.70
67529;DHT22;54366;51.980;5.856;2024-02-21T11:02:17;10.70;83.70
67529;DHT22;54366;51.980;5.856;2024-02-21T11:04:44;10.70;83.90
67529;DHT22;54366;51.980;5.856;2024-02-21T11:07:11;10.70;83.90
67529;DHT22;54366;51.980;5.856;2024-02-21T11:09:38;10.70;83.90
67529;DHT22;54366;51.980;5.856;2024-02-21T11:12:06;10.80;84.00
67529;DHT22;54366;51.980;5.856;2024-02-21T11:14:32;10.80;84.00
67529;DHT22;54366;51.980;5.856;2024-02-21T11:17:00;10.80;83.90
67529;DHT22;54366;51.980;5.856;2024-02-21T11:19:28;10.90;83.90
67529;DHT22;54366;51.980;5.856;2024-02-21T11:21:55;10.80;83.70
67529;DHT22;54366;51.980;5.856;2024-02-21T11:24:40;10.80;83.60
67529;DHT22;54366;51.980;5.856;2024-02-21T11:27:33;10.90;83.70
67529;DHT22;54366;51.980;5.856;2024-02-21T11:29:59;10.80;83.70
67529;DHT22;54366;51.980;5.856;2024-02-21T11:32:26;10.90;83.40
67529;DHT22;54366;51.980;5.856;2024-02-21T11:35:03;10.90;83.40
67529;DHT22;54366;51.980;5.856;2024-02-21T11:37:33;10.80;83.10
67529;DHT22;54366;51.980;5.856;2024-02-21T11:40:00;10.80;83.20
67529;DHT22;54366;51.980;5.856;2024-02-21T11:42:27;10.80;83.00
67529;DHT22;54366;51.980;5.856;2024-02-21T11:44:55;10.80;83.00
67529;DHT22;54366;51.980;5.856;2024-02-21T11:47:25;10.80;82.90
67529;DHT22;54366;51.980;5.856;2024-02-21T11:49:52;10.80;82.90
67529;DHT22;54366;51.980;5.856;2024-02-21T11:52:22;10.80;83.00
67529;DHT22;54366;51.980;5.856;2024-02-21T11:54:51;10.80;82.90
67529;DHT22;54366;51.980;5.856;2024-02-21T11:57:19;10.80;82.90
67529;DHT22;54366;51.980;5.856;2024-02-21T11:59:46;10.80;82.80
67529;DHT22;54366;51.980;5.856;2024-02-21T12:02:13;10.80;82.90
67529;DHT22;54366;51.980;5.856;2024-02-21T12:04:40;10.80;82.70
67529;DHT22;54366;51.980;5.856;2024-02-21T12:07:07;10.80;82.70
67529;DHT22;54366;51.980;5.856;2024-02-21T12:09:34;10.80;82.40
67529;DHT22;54366;51.980;5.856;2024-02-21T12:14:29;10.80;82.50
67529;DHT22;54366;51.980;5.856;2024-02-21T12:16:56;10.80;82.50
67529;DHT22;54366;51.980;5.856;2024-02-21T12:19:23;10.90;82.60
67529;DHT22;54366;51.980;5.856;2024-02-21T12:21:49;10.90;82.30
67529;DHT22;54366;51.980;5.856;2024-02-21T12:24:26;11.00;82.10
67529;DHT22;54366;51.980;5.856;2024-02-21T12:26:53;11.00;82.00
67529;DHT22;54366;51.980;5.856;2024-02-21T12:29:20;11.10;82.10
67529;DHT22;54366;51.980;5.856;2024-02-21T12:31:47;11.10;81.90
67529;DHT22;54366;51.980;5.856;2024-02-21T12:34:14;11.30;81.70
67529;DHT22;54366;51.980;5.856;2024-02-21T12:36:42;11.30;81.40
67529;DHT22;54366;51.980;5.856;2024-02-21T12:39:15;11.40;81.40
67529;DHT22;54366;51.980;5.856;2024-02-21T12:41:42;11.50;80.70
67529;DHT22;54366;51.980;5.856;2024-02-21T12:44:11;11.50;80.80
67529;DHT22;54366;51.980;5.856;2024-02-21T12:46:38;11.60;80.70
67529;DHT22;54366;51.980;5.856;2024-02-21T12:49:06;11.60;80.30
67529;DHT22;54366;51.980;5.856;2024-02-21T12:51:34;11.60;80.40
67529;DHT22;54366;51.980;5.856;2024-02-21T12:54:01;11.60;79.70
67529;DHT22;54366;51.980;5.856;2024-02-21T12:56:29;11.60;79.90
67529;DHT22;54366;51.980;5.856;2024-02-21T12:58:57;11.60;80.50
67529;DHT22;54366;51.980;5.856;2024-02-21T13:01:24;11.60;80.00
67529;DHT22;54366;51.980;5.856;2024-02-21T13:03:50;11.60;79.80
67529;DHT22;54366;51.980;5.856;2024-02-21T13:06:16;11.70;79.90
67529;DHT22;54366;51.980;5.856;2024-02-21T13:08:45;11.70;79.20
67529;DHT22;54366;51.980;5.856;2024-02-21T13:11:12;11.70;79.30
67529;DHT22;54366;51.980;5.856;2024-02-21T13:13:39;11.70;79.20
67529;DHT22;54366;51.980;5.856;2024-02-21T13:16:05;11.60;79.10
67529;DHT22;54366;51.980;5.856;2024-02-21T13:18:32;11.60;79.50
67529;DHT22;54366;51.980;5.856;2024-02-21T13:20:58;11.60;78.80
67529;DHT22;54366;51.980;5.856;2024-02-21T13:23:25;11.60;79.00
67529;DHT22;54366;51.980;5.856;2024-02-21T13:25:51;11.60;79.00
67529;DHT22;54366;51.980;5.856;2024-02-21T13:28:17;11.70;78.80
67529;DHT22;54366;51.980;5.856;2024-02-21T13:30:43;11.70;78.60
67529;DHT22;54366;51.980;5.856;2024-02-21T13:33:10;11.70;78.60
67529;DHT22;54366;51.980;5.856;2024-02-21T13:35:36;11.70;78.70
67529;DHT22;54366;51.980;5.856;2024-02-21T13:38:03;11.70;78.70
67529;DHT22;54366;51.980;5.856;2024-02-21T13:40:29;11.80;78.90
67529;DHT22;54366;51.980;5.856;2024-02-21T13:42:56;11.80;78.70
67529;DHT22;54366;51.980;5.856;2024-02-21T13:45:22;11.90;79.00
67529;DHT22;54366;51.980;5.856;2024-02-21T13:47:49;11.90;79.20
67529;DHT22;54366;51.980;5.856;2024-02-21T13:50:15;11.90;78.90
67529;DHT22;54366;51.980;5.856;2024-02-21T13:52:41;11.90;78.20
67529;DHT22;54366;51.980;5.856;2024-02-21T13:55:08;11.90;78.10
67529;DHT22;54366;51.980;5.856;2024-02-21T13:57:35;11.90;78.00
67529;DHT22;54366;51.980;5.856;2024-02-21T14:00:03;11.90;78.20
67529;DHT22;54366;51.980;5.856;2024-02-21T14:02:38;11.90;78.40
67529;DHT22;54366;51.980;5.856;2024-02-21T14:05:05;11.90;78.20
67529;DHT22;54366;51.980;5.856;2024-02-21T14:07:32;11.90;77.70
67529;DHT22;54366;51.980;5.856;2024-02-21T14:10:01;11.90;77.20
67529;DHT22;54366;51.980;5.856;2024-02-21T14:12:28;11.90;77.10
67529;DHT22;54366;51.980;5.856;2024-02-21T14:14:54;11.90;76.50
67529;DHT22;54366;51.980;5.856;2024-02-21T14:17:23;11.90;76.70
67529;DHT22;54366;51.980;5.856;2024-02-21T14:19:50;11.90;76.40
67529;DHT22;54366;51.980;5.856;2024-02-21T14:22:17;11.90;76.70
67529;DHT22;54366;51.980;5.856;2024-02-21T14:24:45;11.90;76.10
67529;DHT22;54366;51.980;5.856;2024-02-21T14:27:11;11.90;75.80
67529;DHT22;54366;51.980;5.856;2024-02-21T14:29:38;11.90;75.60
67529;DHT22;54366;51.980;5.856;2024-02-21T14:32:05;11.80;75.80
67529;DHT22;54366;51.980;5.856;2024-02-21T14:34:32;11.90;75.90
67529;DHT22;54366;51.980;5.856;2024-02-21T14:36:58;11.80;75.50
67529;DHT22;54366;51.980;5.856;2024-02-21T14:39:24;11.80;75.90
67529;DHT22;54366;51.980;5.856;2024-02-21T14:41:50;11.80;75.90
67529;DHT22;54366;51.980;5.856;2024-02-21T14:44:17;11.80;75.80
67529;DHT22;54366;51.980;5.856;2024-02-21T14:46:43;11.70;75.90
67529;DHT22;54366;51.980;5.856;2024-02-21T14:49:10;11.70;75.50
67529;DHT22;54366;51.980;5.856;2024-02-21T14:51:37;11.70;75.30
67529;DHT22;54366;51.980;5.856;2024-02-21T14:54:03;11.70;75.50
67529;DHT22;54366;51.980;5.856;2024-02-21T14:56:30;11.70;75.70
67529;DHT22;54366;51.980;5.856;2024-02-21T14:58:57;11.60;75.60
67529;DHT22;54366;51.980;5.856;2024-02-21T15:01:24;11.70;75.70
67529;DHT22;54366;51.980;5.856;2024-02-21T15:03:50;11.70;76.00
67529;DHT22;54366;51.980;5.856;2024-02-21T15:06:17;11.70;76.10
67529;DHT22;54366;51.980;5.856;2024-02-21T15:08:43;11.70;76.40
67529;DHT22;54366;51.980;5.856;2024-02-21T15:11:10;11.70;76.30
67529;DHT22;54366;51.980;5.856;2024-02-21T15:13:37;11.60;76.30
67529;DHT22;54366;51.980;5.856;2024-02-21T15:16:03;11.60;76.60
67529;DHT22;54366;51.980;5.856;2024-02-21T15:18:31;11.60;76.40
67529;DHT22;54366;51.980;5.856;2024-02-21T15:20:59;11.60;76.50
67529;DHT22;54366;51.980;5.856;2024-02-21T15:23:27;11.50;76.80
67529;DHT22;54366;51.980;5.856;2024-02-21T15:25:53;11.50;77.20
67529;DHT22;54366;51.980;5.856;2024-02-21T15:28:19;11.50;77.50
67529;DHT22;54366;51.980;5.856;2024-02-21T15:30:46;11.40;77.70
67529;DHT22;54366;51.980;5.856;2024-02-21T15:33:12;11.40;77.90
67529;DHT22;54366;51.980;5.856;2024-02-21T15:35:38;11.40;78.40
67529;DHT22;54366;51.980;5.856;2024-02-21T15:38:05;11.30;78.90